createdAt,value
2022-12-27T00:02:12.994Z,7.39
2022-12-27T00:12:20.174Z,7.43
2022-12-27T00:22:27.656Z,7.47
2022-12-27T00:32:35.040Z,7.46
2022-12-27T00:42:42.177Z,7.45
2022-12-27T00:52:48.428Z,7.41
2022-12-27T01:13:01.524Z,7.37
2022-12-27T01:23:08.708Z,7.33
2022-12-27T01:33:15.901Z,7.32
2022-12-27T01:43:22.141Z,7.30
2022-12-27T01:53:34.850Z,7.25
2022-12-27T02:03:46.156Z,7.21
2022-12-27T02:13:53.401Z,7.18
2022-12-27T02:24:30.213Z,6.95
2022-12-27T02:34:41.739Z,6.63
2022-12-27T02:45:05.568Z,6.40
2022-12-27T02:55:16.948Z,6.17
2022-12-27T03:05:21.770Z,6.03
2022-12-27T03:15:53.299Z,5.93
2022-12-27T03:26:02.937Z,5.91
2022-12-27T03:36:25.907Z,5.87
2022-12-27T03:46:35.488Z,5.80
2022-12-27T03:56:41.790Z,5.77
2022-12-27T04:06:49.817Z,5.75
2022-12-27T04:17:14.567Z,5.73
2022-12-27T04:27:39.107Z,5.64
2022-12-27T04:37:45.068Z,4.93
2022-12-27T04:48:09.887Z,4.34
2022-12-27T04:58:16.973Z,4.00
2022-12-27T05:08:42.841Z,3.78
2022-12-27T05:18:50.116Z,3.67
2022-12-27T05:28:59.660Z,3.45
2022-12-27T05:39:07.099Z,3.23
2022-12-27T05:49:14.079Z,2.98
2022-12-27T05:59:21.528Z,2.76
2022-12-27T06:09:28.751Z,2.69
2022-12-27T06:19:36.495Z,2.64
2022-12-27T06:29:42.216Z,2.59
2022-12-27T06:39:49.594Z,2.53
2022-12-27T06:49:56.264Z,2.50
2022-12-27T07:00:03.760Z,2.43
2022-12-27T07:10:12.034Z,2.39
2022-12-27T07:20:18.410Z,2.41
2022-12-27T07:30:24.267Z,2.46
2022-12-27T07:40:31.504Z,2.55
2022-12-27T07:50:38.818Z,2.67
2022-12-27T08:00:46.111Z,2.82
2022-12-27T08:10:53.416Z,2.87
2022-12-27T08:20:59.696Z,3.00
2022-12-27T08:31:09.328Z,3.97
2022-12-27T08:41:21.027Z,3.76
2022-12-27T08:51:35.850Z,3.60
2022-12-27T09:01:47.956Z,3.60
2022-12-27T09:11:55.261Z,3.66
2022-12-27T09:22:03.737Z,3.77
2022-12-27T09:32:10.943Z,3.88
2022-12-27T09:43:01.996Z,3.83
2022-12-27T09:52:52.842Z,4.02
2022-12-27T10:03:05.232Z,4.27
2022-12-27T10:13:18.211Z,4.34
2022-12-27T10:23:25.735Z,4.38
2022-12-27T10:33:35.543Z,4.56
2022-12-27T10:43:45.660Z,4.64
2022-12-27T10:54:02.362Z,4.78
2022-12-27T11:04:19.810Z,4.85
2022-12-27T11:14:28.250Z,4.77
2022-12-27T11:24:35.467Z,4.74
2022-12-27T11:34:47.170Z,4.79
2022-12-27T11:44:54.215Z,4.69
2022-12-27T11:55:14.552Z,4.66
2022-12-27T12:05:46.845Z,4.59
2022-12-27T12:16:28.734Z,4.61
2022-12-27T12:26:38.407Z,4.62
2022-12-27T12:36:52.715Z,4.59
2022-12-27T12:46:58.515Z,4.58
2022-12-27T12:57:10.841Z,4.43
2022-12-27T13:07:26.010Z,4.23
2022-12-27T13:17:37.360Z,4.21
2022-12-27T13:27:43.215Z,4.39
2022-12-27T13:37:54.085Z,4.30
2022-12-27T13:48:13.951Z,4.17
2022-12-27T13:58:34.007Z,4.08
2022-12-27T14:09:18.831Z,4.01
2022-12-27T14:19:40.482Z,3.91
2022-12-27T14:30:21.217Z,3.78
2022-12-27T14:41:00.114Z,3.71
2022-12-27T14:51:59.248Z,3.66
2022-12-27T15:02:02.036Z,3.55
2022-12-27T15:12:10.458Z,3.41
2022-12-27T15:22:19.043Z,3.35
2022-12-27T15:32:27.864Z,3.34
2022-12-27T15:42:43.324Z,3.31
2022-12-27T15:53:12.841Z,3.20
2022-12-27T16:03:31.878Z,3.08
2022-12-27T16:13:51.397Z,3.04
2022-12-27T16:24:01.171Z,3.06
2022-12-27T16:34:11.678Z,2.97
2022-12-27T16:44:26.896Z,2.92
2022-12-27T16:54:32.709Z,2.96
2022-12-27T17:04:59.307Z,3.02
2022-12-27T17:15:13.719Z,3.09
2022-12-27T17:25:22.889Z,3.07
2022-12-27T17:35:31.972Z,3.02
2022-12-27T17:45:44.045Z,2.97
2022-12-27T17:56:17.941Z,2.99
2022-12-27T18:06:25.448Z,3.03
2022-12-27T18:16:33.665Z,3.01
2022-12-27T18:26:42.507Z,2.96
2022-12-27T18:36:53.072Z,2.88
2022-12-27T18:47:01.703Z,2.88
2022-12-27T18:57:13.372Z,2.91
2022-12-27T19:07:20.892Z,2.89
2022-12-27T19:17:31.457Z,2.77
2022-12-27T19:27:38.698Z,2.74
2022-12-27T19:37:46.161Z,2.72
2022-12-27T19:47:55.771Z,2.73
2022-12-27T19:58:03.403Z,2.55
2022-12-27T20:08:16.333Z,2.24
2022-12-27T20:18:25.119Z,1.95
2022-12-27T20:28:31.181Z,1.93
2022-12-27T20:38:39.279Z,1.92
2022-12-27T20:48:48.294Z,2.00
2022-12-27T20:58:55.675Z,2.12
2022-12-27T21:09:03.259Z,2.13
2022-12-27T21:19:10.904Z,2.04
2022-12-27T21:29:19.499Z,2.01
2022-12-27T21:39:26.738Z,2.06
2022-12-27T21:49:35.173Z,2.14
2022-12-27T21:59:41.379Z,2.11
2022-12-27T22:09:48.670Z,2.12
2022-12-27T22:19:55.787Z,2.13
2022-12-27T22:30:03.715Z,2.00
2022-12-27T22:40:30.974Z,1.87
2022-12-27T22:50:39.624Z,1.92
2022-12-27T23:00:46.764Z,2.07
2022-12-27T23:10:53.947Z,2.23
2022-12-27T23:21:21.863Z,2.23
2022-12-27T23:31:29.520Z,2.11
2022-12-27T23:41:36.055Z,1.98
